sensor_id;sensor_type;location;lat;lon;timestamp;P1;durP1;ratioP1;P2;durP2;ratioP2
69594;SDS011;56800;52.142;5.364;2024-02-26T00:02:10;8.15;;;3.10;;
69594;SDS011;56800;52.142;5.364;2024-02-26T00:04:37;5.13;;;3.10;;
69594;SDS011;56800;52.142;5.364;2024-02-26T00:07:04;5.13;;;2.88;;
69594;SDS011;56800;52.142;5.364;2024-02-26T00:09:31;8.52;;;3.22;;
69594;SDS011;56800;52.142;5.364;2024-02-26T00:11:59;6.65;;;3.38;;
69594;SDS011;56800;52.142;5.364;2024-02-26T00:14:26;6.13;;;3.30;;
69594;SDS011;56800;52.142;5.364;2024-02-26T00:16:53;5.93;;;3.20;;
69594;SDS011;56800;52.142;5.364;2024-02-26T00:19:19;6.65;;;3.40;;
69594;SDS011;56800;52.142;5.364;2024-02-26T00:21:47;6.72;;;3.30;;
69594;SDS011;56800;52.142;5.364;2024-02-26T00:24:14;5.97;;;3.20;;
69594;SDS011;56800;52.142;5.364;2024-02-26T00:26:41;7.75;;;3.65;;
69594;SDS011;56800;52.142;5.364;2024-02-26T00:29:08;7.23;;;3.60;;
69594;SDS011;56800;52.142;5.364;2024-02-26T00:31:36;5.47;;;3.58;;
69594;SDS011;56800;52.142;5.364;2024-02-26T00:34:03;6.22;;;3.70;;
69594;SDS011;56800;52.142;5.364;2024-02-26T00:36:30;7.10;;;3.75;;
69594;SDS011;56800;52.142;5.364;2024-02-26T00:39:00;6.00;;;4.18;;
69594;SDS011;56800;52.142;5.364;2024-02-26T00:41:27;6.60;;;4.20;;
69594;SDS011;56800;52.142;5.364;2024-02-26T00:43:53;5.32;;;3.72;;
69594;SDS011;56800;52.142;5.364;2024-02-26T00:46:20;5.45;;;3.90;;
69594;SDS011;56800;52.142;5.364;2024-02-26T00:48:47;5.85;;;3.97;;
69594;SDS011;56800;52.142;5.364;2024-02-26T00:51:15;5.53;;;3.90;;
69594;SDS011;56800;52.142;5.364;2024-02-26T00:53:42;5.27;;;3.70;;
69594;SDS011;56800;52.142;5.364;2024-02-26T00:56:09;7.43;;;3.83;;
69594;SDS011;56800;52.142;5.364;2024-02-26T00:58:36;6.60;;;4.10;;
69594;SDS011;56800;52.142;5.364;2024-02-26T01:01:03;6.90;;;4.38;;
69594;SDS011;56800;52.142;5.364;2024-02-26T01:03:30;7.53;;;4.30;;
69594;SDS011;56800;52.142;5.364;2024-02-26T01:05:57;10.30;;;4.10;;
69594;SDS011;56800;52.142;5.364;2024-02-26T01:08:25;6.20;;;4.18;;
69594;SDS011;56800;52.142;5.364;2024-02-26T01:10:52;7.72;;;4.22;;
69594;SDS011;56800;52.142;5.364;2024-02-26T01:13:18;7.90;;;4.50;;
69594;SDS011;56800;52.142;5.364;2024-02-26T01:15:45;6.55;;;4.25;;
69594;SDS011;56800;52.142;5.364;2024-02-26T01:18:12;6.20;;;4.17;;
69594;SDS011;56800;52.142;5.364;2024-02-26T01:20:40;7.72;;;4.18;;
69594;SDS011;56800;52.142;5.364;2024-02-26T01:23:07;8.35;;;4.45;;
69594;SDS011;56800;52.142;5.364;2024-02-26T01:25:33;6.22;;;4.22;;
69594;SDS011;56800;52.142;5.364;2024-02-26T01:28:00;7.72;;;4.20;;
69594;SDS011;56800;52.142;5.364;2024-02-26T01:30:27;7.17;;;4.23;;
69594;SDS011;56800;52.142;5.364;2024-02-26T01:32:54;8.27;;;4.20;;
69594;SDS011;56800;52.142;5.364;2024-02-26T01:35:21;6.25;;;4.80;;
69594;SDS011;56800;52.142;5.364;2024-02-26T01:37:48;8.30;;;4.55;;
69594;SDS011;56800;52.142;5.364;2024-02-26T01:40:15;5.78;;;4.10;;
69594;SDS011;56800;52.142;5.364;2024-02-26T01:42:46;6.83;;;4.47;;
69594;SDS011;56800;52.142;5.364;2024-02-26T01:45:16;7.60;;;4.50;;
69594;SDS011;56800;52.142;5.364;2024-02-26T01:47:50;7.13;;;4.63;;
69594;SDS011;56800;52.142;5.364;2024-02-26T01:50:18;6.32;;;4.18;;
69594;SDS011;56800;52.142;5.364;2024-02-26T01:52:46;6.47;;;4.45;;
69594;SDS011;56800;52.142;5.364;2024-02-26T01:55:15;7.50;;;4.60;;
69594;SDS011;56800;52.142;5.364;2024-02-26T01:57:44;6.93;;;4.63;;
69594;SDS011;56800;52.142;5.364;2024-02-26T02:00:14;5.78;;;4.20;;
69594;SDS011;56800;52.142;5.364;2024-02-26T02:02:42;6.22;;;4.65;;
69594;SDS011;56800;52.142;5.364;2024-02-26T02:05:14;6.68;;;4.50;;
69594;SDS011;56800;52.142;5.364;2024-02-26T02:07:46;6.70;;;4.40;;
69594;SDS011;56800;52.142;5.364;2024-02-26T02:10:15;6.57;;;4.32;;
69594;SDS011;56800;52.142;5.364;2024-02-26T02:12:44;7.53;;;4.88;;
69594;SDS011;56800;52.142;5.364;2024-02-26T02:15:11;6.45;;;4.50;;
69594;SDS011;56800;52.142;5.364;2024-02-26T02:17:38;6.55;;;5.00;;
69594;SDS011;56800;52.142;5.364;2024-02-26T02:20:15;9.63;;;4.67;;
69594;SDS011;56800;52.142;5.364;2024-02-26T02:22:46;6.43;;;4.88;;
69594;SDS011;56800;52.142;5.364;2024-02-26T02:25:13;7.65;;;5.43;;
69594;SDS011;56800;52.142;5.364;2024-02-26T02:27:40;9.52;;;4.70;;
69594;SDS011;56800;52.142;5.364;2024-02-26T02:30:08;7.72;;;4.78;;
69594;SDS011;56800;52.142;5.364;2024-02-26T02:32:37;6.77;;;4.87;;
69594;SDS011;56800;52.142;5.364;2024-02-26T02:35:08;7.72;;;4.45;;
69594;SDS011;56800;52.142;5.364;2024-02-26T02:37:35;7.88;;;4.97;;
69594;SDS011;56800;52.142;5.364;2024-02-26T02:40:03;6.90;;;4.47;;
69594;SDS011;56800;52.142;5.364;2024-02-26T02:42:31;7.75;;;5.18;;
69594;SDS011;56800;52.142;5.364;2024-02-26T02:44:58;7.67;;;4.77;;
69594;SDS011;56800;52.142;5.364;2024-02-26T02:47:25;6.65;;;4.30;;
69594;SDS011;56800;52.142;5.364;2024-02-26T02:49:52;7.32;;;4.80;;
69594;SDS011;56800;52.142;5.364;2024-02-26T02:52:19;7.43;;;4.45;;
69594;SDS011;56800;52.142;5.364;2024-02-26T02:54:45;7.18;;;5.07;;
69594;SDS011;56800;52.142;5.364;2024-02-26T02:57:13;6.43;;;4.90;;
69594;SDS011;56800;52.142;5.364;2024-02-26T02:59:40;7.55;;;5.20;;
69594;SDS011;56800;52.142;5.364;2024-02-26T03:02:07;6.72;;;5.05;;
69594;SDS011;56800;52.142;5.364;2024-02-26T03:04:34;7.95;;;5.03;;
69594;SDS011;56800;52.142;5.364;2024-02-26T03:07:01;7.38;;;5.03;;
69594;SDS011;56800;52.142;5.364;2024-02-26T03:09:28;7.70;;;5.23;;
69594;SDS011;56800;52.142;5.364;2024-02-26T03:11:55;8.68;;;5.50;;
69594;SDS011;56800;52.142;5.364;2024-02-26T03:14:22;7.90;;;4.78;;
69594;SDS011;56800;52.142;5.364;2024-02-26T03:16:49;8.07;;;5.13;;
69594;SDS011;56800;52.142;5.364;2024-02-26T03:19:16;7.60;;;5.20;;
69594;SDS011;56800;52.142;5.364;2024-02-26T03:21:43;7.37;;;5.70;;
69594;SDS011;56800;52.142;5.364;2024-02-26T03:24:10;7.93;;;5.13;;
69594;SDS011;56800;52.142;5.364;2024-02-26T03:26:37;7.65;;;5.55;;
69594;SDS011;56800;52.142;5.364;2024-02-26T03:29:04;7.60;;;5.53;;
69594;SDS011;56800;52.142;5.364;2024-02-26T03:31:32;9.27;;;5.20;;
69594;SDS011;56800;52.142;5.364;2024-02-26T03:33:59;9.13;;;5.43;;
69594;SDS011;56800;52.142;5.364;2024-02-26T03:36:26;9.77;;;5.72;;
69594;SDS011;56800;52.142;5.364;2024-02-26T03:38:53;7.00;;;5.00;;
69594;SDS011;56800;52.142;5.364;2024-02-26T03:41:20;7.22;;;5.70;;
69594;SDS011;56800;52.142;5.364;2024-02-26T03:43:47;8.80;;;5.60;;
69594;SDS011;56800;52.142;5.364;2024-02-26T03:46:14;8.17;;;5.53;;
69594;SDS011;56800;52.142;5.364;2024-02-26T03:48:41;9.30;;;5.88;;
69594;SDS011;56800;52.142;5.364;2024-02-26T03:51:09;8.27;;;5.72;;
69594;SDS011;56800;52.142;5.364;2024-02-26T03:53:36;8.13;;;5.80;;
69594;SDS011;56800;52.142;5.364;2024-02-26T03:56:04;9.75;;;5.78;;
69594;SDS011;56800;52.142;5.364;2024-02-26T03:58:32;9.43;;;5.50;;
69594;SDS011;56800;52.142;5.364;2024-02-26T04:00:59;9.00;;;6.32;;
69594;SDS011;56800;52.142;5.364;2024-02-26T04:03:27;10.65;;;6.03;;
69594;SDS011;56800;52.142;5.364;2024-02-26T04:05:53;8.05;;;5.38;;
69594;SDS011;56800;52.142;5.364;2024-02-26T04:08:20;10.23;;;6.00;;
69594;SDS011;56800;52.142;5.364;2024-02-26T04:10:47;9.00;;;5.53;;
69594;SDS011;56800;52.142;5.364;2024-02-26T04:13:14;8.23;;;5.70;;
69594;SDS011;56800;52.142;5.364;2024-02-26T04:15:41;10.13;;;5.93;;
69594;SDS011;56800;52.142;5.364;2024-02-26T04:18:08;12.18;;;6.50;;
69594;SDS011;56800;52.142;5.364;2024-02-26T04:20:35;9.10;;;6.38;;
69594;SDS011;56800;52.142;5.364;2024-02-26T04:23:03;9.70;;;6.00;;
69594;SDS011;56800;52.142;5.364;2024-02-26T04:25:30;10.45;;;6.32;;
69594;SDS011;56800;52.142;5.364;2024-02-26T04:27:56;10.88;;;6.60;;
69594;SDS011;56800;52.142;5.364;2024-02-26T04:30:23;10.07;;;5.78;;
69594;SDS011;56800;52.142;5.364;2024-02-26T04:32:50;10.27;;;6.15;;
69594;SDS011;56800;52.142;5.364;2024-02-26T04:35:18;10.60;;;6.13;;
69594;SDS011;56800;52.142;5.364;2024-02-26T04:37:44;9.40;;;6.28;;
69594;SDS011;56800;52.142;5.364;2024-02-26T04:40:11;9.93;;;6.55;;
69594;SDS011;56800;52.142;5.364;2024-02-26T04:42:38;9.95;;;6.25;;
69594;SDS011;56800;52.142;5.364;2024-02-26T04:45:06;12.07;;;7.13;;
69594;SDS011;56800;52.142;5.364;2024-02-26T04:47:34;9.23;;;6.23;;
69594;SDS011;56800;52.142;5.364;2024-02-26T04:50:01;9.98;;;6.18;;
69594;SDS011;56800;52.142;5.364;2024-02-26T04:52:28;9.68;;;6.75;;
69594;SDS011;56800;52.142;5.364;2024-02-26T04:54:55;9.57;;;6.65;;
69594;SDS011;56800;52.142;5.364;2024-02-26T04:57:22;11.00;;;6.70;;
69594;SDS011;56800;52.142;5.364;2024-02-26T04:59:49;9.83;;;6.60;;
69594;SDS011;56800;52.142;5.364;2024-02-26T05:02:16;10.75;;;6.82;;
69594;SDS011;56800;52.142;5.364;2024-02-26T05:04:43;12.60;;;7.85;;
69594;SDS011;56800;52.142;5.364;2024-02-26T05:07:10;10.50;;;7.20;;
69594;SDS011;56800;52.142;5.364;2024-02-26T05:09:39;15.15;;;7.78;;
69594;SDS011;56800;52.142;5.364;2024-02-26T05:12:08;13.13;;;6.80;;
69594;SDS011;56800;52.142;5.364;2024-02-26T05:14:35;10.55;;;7.15;;
69594;SDS011;56800;52.142;5.364;2024-02-26T05:17:02;11.57;;;7.72;;
69594;SDS011;56800;52.142;5.364;2024-02-26T05:19:29;10.32;;;7.60;;
69594;SDS011;56800;52.142;5.364;2024-02-26T05:21:56;11.32;;;7.38;;
69594;SDS011;56800;52.142;5.364;2024-02-26T05:24:23;11.83;;;7.73;;
69594;SDS011;56800;52.142;5.364;2024-02-26T05:26:50;13.77;;;7.72;;
69594;SDS011;56800;52.142;5.364;2024-02-26T05:29:17;11.65;;;7.93;;
69594;SDS011;56800;52.142;5.364;2024-02-26T05:31:44;10.95;;;7.13;;
69594;SDS011;56800;52.142;5.364;2024-02-26T05:34:11;13.55;;;7.78;;
69594;SDS011;56800;52.142;5.364;2024-02-26T05:36:38;11.30;;;7.63;;
69594;SDS011;56800;52.142;5.364;2024-02-26T05:39:05;11.30;;;7.68;;
69594;SDS011;56800;52.142;5.364;2024-02-26T05:41:35;11.68;;;8.10;;
69594;SDS011;56800;52.142;5.364;2024-02-26T05:44:02;14.35;;;7.47;;
69594;SDS011;56800;52.142;5.364;2024-02-26T05:46:29;12.20;;;7.75;;
69594;SDS011;56800;52.142;5.364;2024-02-26T05:48:56;12.87;;;7.40;;
69594;SDS011;56800;52.142;5.364;2024-02-26T05:51:23;12.32;;;7.70;;
69594;SDS011;56800;52.142;5.364;2024-02-26T05:53:51;13.30;;;8.40;;
69594;SDS011;56800;52.142;5.364;2024-02-26T05:56:24;12.77;;;8.27;;
69594;SDS011;56800;52.142;5.364;2024-02-26T05:58:51;11.50;;;8.18;;
69594;SDS011;56800;52.142;5.364;2024-02-26T06:01:19;11.90;;;7.90;;
69594;SDS011;56800;52.142;5.364;2024-02-26T06:03:46;10.95;;;7.68;;
69594;SDS011;56800;52.142;5.364;2024-02-26T06:06:13;12.45;;;7.88;;
69594;SDS011;56800;52.142;5.364;2024-02-26T06:08:42;13.50;;;8.00;;
69594;SDS011;56800;52.142;5.364;2024-02-26T06:11:09;13.98;;;8.90;;
69594;SDS011;56800;52.142;5.364;2024-02-26T06:13:36;13.60;;;8.37;;
69594;SDS011;56800;52.142;5.364;2024-02-26T06:16:03;12.30;;;8.32;;
69594;SDS011;56800;52.142;5.364;2024-02-26T06:18:30;12.50;;;7.82;;
69594;SDS011;56800;52.142;5.364;2024-02-26T06:20:58;12.65;;;8.02;;
69594;SDS011;56800;52.142;5.364;2024-02-26T06:23:25;12.27;;;7.68;;
69594;SDS011;56800;52.142;5.364;2024-02-26T06:25:52;16.00;;;8.60;;
69594;SDS011;56800;52.142;5.364;2024-02-26T06:28:19;13.32;;;8.43;;
69594;SDS011;56800;52.142;5.364;2024-02-26T06:30:45;15.82;;;9.15;;
69594;SDS011;56800;52.142;5.364;2024-02-26T06:33:12;16.23;;;9.70;;
69594;SDS011;56800;52.142;5.364;2024-02-26T06:35:41;14.90;;;8.77;;
69594;SDS011;56800;52.142;5.364;2024-02-26T06:38:08;16.17;;;9.17;;
69594;SDS011;56800;52.142;5.364;2024-02-26T06:40:35;17.13;;;9.10;;
69594;SDS011;56800;52.142;5.364;2024-02-26T06:43:02;15.68;;;9.65;;
69594;SDS011;56800;52.142;5.364;2024-02-26T06:45:29;15.18;;;9.20;;
69594;SDS011;56800;52.142;5.364;2024-02-26T06:47:56;16.23;;;9.13;;
69594;SDS011;56800;52.142;5.364;2024-02-26T06:50:23;16.17;;;9.17;;
69594;SDS011;56800;52.142;5.364;2024-02-26T06:52:50;16.92;;;9.93;;
69594;SDS011;56800;52.142;5.364;2024-02-26T06:55:17;17.23;;;10.52;;
69594;SDS011;56800;52.142;5.364;2024-02-26T06:57:44;20.77;;;10.32;;
69594;SDS011;56800;52.142;5.364;2024-02-26T07:00:11;18.77;;;10.68;;
69594;SDS011;56800;52.142;5.364;2024-02-26T07:02:43;19.97;;;10.93;;
69594;SDS011;56800;52.142;5.364;2024-02-26T07:05:10;20.02;;;10.63;;
69594;SDS011;56800;52.142;5.364;2024-02-26T07:07:37;20.38;;;11.55;;
69594;SDS011;56800;52.142;5.364;2024-02-26T07:10:04;22.10;;;11.48;;
69594;SDS011;56800;52.142;5.364;2024-02-26T07:12:32;21.02;;;12.02;;
69594;SDS011;56800;52.142;5.364;2024-02-26T07:14:59;23.57;;;12.97;;
69594;SDS011;56800;52.142;5.364;2024-02-26T07:17:27;24.25;;;13.43;;
69594;SDS011;56800;52.142;5.364;2024-02-26T07:19:54;26.75;;;15.27;;
69594;SDS011;56800;52.142;5.364;2024-02-26T07:22:21;31.45;;;15.13;;
69594;SDS011;56800;52.142;5.364;2024-02-26T07:24:48;29.83;;;14.95;;
69594;SDS011;56800;52.142;5.364;2024-02-26T07:27:15;25.87;;;14.07;;
69594;SDS011;56800;52.142;5.364;2024-02-26T07:29:44;28.88;;;15.80;;
69594;SDS011;56800;52.142;5.364;2024-02-26T07:32:11;27.15;;;15.02;;
69594;SDS011;56800;52.142;5.364;2024-02-26T07:34:38;29.35;;;15.52;;
69594;SDS011;56800;52.142;5.364;2024-02-26T07:37:09;26.55;;;15.93;;
69594;SDS011;56800;52.142;5.364;2024-02-26T07:39:38;28.40;;;15.03;;
69594;SDS011;56800;52.142;5.364;2024-02-26T07:42:07;28.20;;;15.48;;
69594;SDS011;56800;52.142;5.364;2024-02-26T07:44:34;27.50;;;15.70;;
69594;SDS011;56800;52.142;5.364;2024-02-26T07:47:01;26.25;;;15.90;;
69594;SDS011;56800;52.142;5.364;2024-02-26T07:49:29;26.20;;;15.80;;
69594;SDS011;56800;52.142;5.364;2024-02-26T07:51:57;31.23;;;17.17;;
69594;SDS011;56800;52.142;5.364;2024-02-26T07:54:24;28.73;;;16.15;;
69594;SDS011;56800;52.142;5.364;2024-02-26T07:56:51;28.20;;;16.17;;
69594;SDS011;56800;52.142;5.364;2024-02-26T07:59:20;28.13;;;16.15;;
69594;SDS011;56800;52.142;5.364;2024-02-26T08:01:52;28.42;;;16.02;;
69594;SDS011;56800;52.142;5.364;2024-02-26T08:04:29;24.87;;;14.87;;
69594;SDS011;56800;52.142;5.364;2024-02-26T08:06:57;26.13;;;15.32;;
69594;SDS011;56800;52.142;5.364;2024-02-26T08:09:24;26.13;;;15.05;;
69594;SDS011;56800;52.142;5.364;2024-02-26T08:11:51;25.15;;;14.70;;
69594;SDS011;56800;52.142;5.364;2024-02-26T08:14:21;22.10;;;14.68;;
69594;SDS011;56800;52.142;5.364;2024-02-26T08:16:50;21.40;;;13.47;;
69594;SDS011;56800;52.142;5.364;2024-02-26T08:19:17;19.95;;;12.43;;
69594;SDS011;56800;52.142;5.364;2024-02-26T08:21:47;19.17;;;12.30;;
69594;SDS011;56800;52.142;5.364;2024-02-26T08:24:14;19.90;;;12.00;;
69594;SDS011;56800;52.142;5.364;2024-02-26T08:26:41;16.30;;;11.52;;
69594;SDS011;56800;52.142;5.364;2024-02-26T08:29:08;16.40;;;10.07;;
69594;SDS011;56800;52.142;5.364;2024-02-26T08:31:35;16.55;;;10.52;;
69594;SDS011;56800;52.142;5.364;2024-02-26T08:34:04;16.40;;;11.07;;
69594;SDS011;56800;52.142;5.364;2024-02-26T08:36:32;15.93;;;9.65;;
69594;SDS011;56800;52.142;5.364;2024-02-26T08:39:00;13.18;;;9.23;;
69594;SDS011;56800;52.142;5.364;2024-02-26T08:41:27;17.27;;;8.70;;
69594;SDS011;56800;52.142;5.364;2024-02-26T08:43:55;14.70;;;8.35;;
69594;SDS011;56800;52.142;5.364;2024-02-26T08:46:22;15.90;;;9.20;;
69594;SDS011;56800;52.142;5.364;2024-02-26T08:48:49;13.57;;;8.63;;
69594;SDS011;56800;52.142;5.364;2024-02-26T08:51:16;13.07;;;8.68;;
69594;SDS011;56800;52.142;5.364;2024-02-26T08:53:43;12.57;;;8.17;;
69594;SDS011;56800;52.142;5.364;2024-02-26T08:56:10;13.50;;;8.75;;
69594;SDS011;56800;52.142;5.364;2024-02-26T08:58:45;12.57;;;8.07;;
69594;SDS011;56800;52.142;5.364;2024-02-26T09:01:17;12.95;;;8.02;;
69594;SDS011;56800;52.142;5.364;2024-02-26T09:03:44;12.52;;;7.93;;
69594;SDS011;56800;52.142;5.364;2024-02-26T09:06:14;11.17;;;7.67;;
69594;SDS011;56800;52.142;5.364;2024-02-26T09:08:44;13.63;;;7.68;;
69594;SDS011;56800;52.142;5.364;2024-02-26T09:11:14;13.18;;;7.40;;
69594;SDS011;56800;52.142;5.364;2024-02-26T09:13:43;11.32;;;7.15;;
69594;SDS011;56800;52.142;5.364;2024-02-26T09:16:11;12.25;;;7.60;;
69594;SDS011;56800;52.142;5.364;2024-02-26T09:18:38;13.37;;;7.17;;
69594;SDS011;56800;52.142;5.364;2024-02-26T09:21:05;13.13;;;7.32;;
69594;SDS011;56800;52.142;5.364;2024-02-26T09:23:32;13.23;;;7.10;;
69594;SDS011;56800;52.142;5.364;2024-02-26T09:26:05;11.23;;;6.90;;
69594;SDS011;56800;52.142;5.364;2024-02-26T09:28:34;11.80;;;6.78;;
69594;SDS011;56800;52.142;5.364;2024-02-26T09:31:06;10.20;;;6.10;;
69594;SDS011;56800;52.142;5.364;2024-02-26T09:33:33;10.48;;;6.18;;
69594;SDS011;56800;52.142;5.364;2024-02-26T09:36:01;11.30;;;7.15;;
69594;SDS011;56800;52.142;5.364;2024-02-26T09:38:30;9.88;;;6.30;;
69594;SDS011;56800;52.142;5.364;2024-02-26T09:41:07;9.55;;;6.78;;
69594;SDS011;56800;52.142;5.364;2024-02-26T09:43:41;8.73;;;5.70;;
69594;SDS011;56800;52.142;5.364;2024-02-26T09:46:17;10.23;;;5.88;;
69594;SDS011;56800;52.142;5.364;2024-02-26T09:48:47;10.60;;;6.13;;
69594;SDS011;56800;52.142;5.364;2024-02-26T09:51:17;10.80;;;5.88;;
69594;SDS011;56800;52.142;5.364;2024-02-26T09:53:46;10.15;;;6.55;;
69594;SDS011;56800;52.142;5.364;2024-02-26T09:56:14;9.50;;;5.90;;
69594;SDS011;56800;52.142;5.364;2024-02-26T09:58:45;10.43;;;5.78;;
69594;SDS011;56800;52.142;5.364;2024-02-26T10:01:16;12.75;;;6.53;;
69594;SDS011;56800;52.142;5.364;2024-02-26T10:03:44;8.73;;;5.22;;
69594;SDS011;56800;52.142;5.364;2024-02-26T10:06:28;10.43;;;5.80;;
69594;SDS011;56800;52.142;5.364;2024-02-26T10:08:56;8.57;;;5.33;;
69594;SDS011;56800;52.142;5.364;2024-02-26T10:11:25;9.75;;;5.65;;
69594;SDS011;56800;52.142;5.364;2024-02-26T10:13:53;8.85;;;5.90;;
69594;SDS011;56800;52.142;5.364;2024-02-26T10:16:20;7.95;;;5.32;;
69594;SDS011;56800;52.142;5.364;2024-02-26T10:18:48;10.88;;;5.82;;
69594;SDS011;56800;52.142;5.364;2024-02-26T10:21:25;9.30;;;5.17;;
69594;SDS011;56800;52.142;5.364;2024-02-26T10:23:52;9.05;;;5.47;;
69594;SDS011;56800;52.142;5.364;2024-02-26T10:26:21;7.82;;;5.15;;
69594;SDS011;56800;52.142;5.364;2024-02-26T10:28:48;7.38;;;5.30;;
69594;SDS011;56800;52.142;5.364;2024-02-26T10:31:20;8.23;;;5.32;;
69594;SDS011;56800;52.142;5.364;2024-02-26T10:33:48;9.10;;;5.30;;
69594;SDS011;56800;52.142;5.364;2024-02-26T10:36:16;9.18;;;5.88;;
69594;SDS011;56800;52.142;5.364;2024-02-26T10:38:43;8.98;;;5.60;;
69594;SDS011;56800;52.142;5.364;2024-02-26T10:41:13;9.57;;;6.03;;
69594;SDS011;56800;52.142;5.364;2024-02-26T10:43:43;7.63;;;5.60;;
69594;SDS011;56800;52.142;5.364;2024-02-26T10:46:13;9.17;;;5.53;;
69594;SDS011;56800;52.142;5.364;2024-02-26T10:48:40;9.30;;;5.55;;
69594;SDS011;56800;52.142;5.364;2024-02-26T10:51:17;10.00;;;5.88;;
69594;SDS011;56800;52.142;5.364;2024-02-26T10:53:51;9.45;;;5.50;;
69594;SDS011;56800;52.142;5.364;2024-02-26T10:56:28;8.40;;;5.22;;
69594;SDS011;56800;52.142;5.364;2024-02-26T10:58:56;11.43;;;5.50;;
69594;SDS011;56800;52.142;5.364;2024-02-26T11:01:25;7.50;;;5.40;;
69594;SDS011;56800;52.142;5.364;2024-02-26T11:03:55;10.43;;;5.90;;
69594;SDS011;56800;52.142;5.364;2024-02-26T11:06:23;10.48;;;5.80;;
69594;SDS011;56800;52.142;5.364;2024-02-26T11:08:52;10.35;;;5.68;;
69594;SDS011;56800;52.142;5.364;2024-02-26T11:11:20;8.30;;;5.37;;
69594;SDS011;56800;52.142;5.364;2024-02-26T11:13:48;9.20;;;5.65;;
69594;SDS011;56800;52.142;5.364;2024-02-26T11:16:18;8.55;;;5.88;;
69594;SDS011;56800;52.142;5.364;2024-02-26T11:18:46;9.65;;;5.85;;
69594;SDS011;56800;52.142;5.364;2024-02-26T11:21:21;8.82;;;5.55;;
69594;SDS011;56800;52.142;5.364;2024-02-26T11:24:06;8.17;;;5.23;;
69594;SDS011;56800;52.142;5.364;2024-02-26T11:26:36;9.45;;;6.00;;
69594;SDS011;56800;52.142;5.364;2024-02-26T11:29:13;7.60;;;5.18;;
69594;SDS011;56800;52.142;5.364;2024-02-26T11:31:48;8.23;;;5.90;;
69594;SDS011;56800;52.142;5.364;2024-02-26T11:34:18;8.77;;;5.22;;
69594;SDS011;56800;52.142;5.364;2024-02-26T11:36:46;10.13;;;5.43;;
69594;SDS011;56800;52.142;5.364;2024-02-26T11:39:13;10.35;;;6.18;;
69594;SDS011;56800;52.142;5.364;2024-02-26T11:41:43;8.65;;;5.28;;
69594;SDS011;56800;52.142;5.364;2024-02-26T11:44:10;9.32;;;5.50;;
69594;SDS011;56800;52.142;5.364;2024-02-26T11:46:41;10.77;;;6.28;;
69594;SDS011;56800;52.142;5.364;2024-02-26T11:49:44;7.93;;;5.63;;
69594;SDS011;56800;52.142;5.364;2024-02-26T11:52:06;7.50;;;5.47;;
69594;SDS011;56800;52.142;5.364;2024-02-26T11:54:44;8.65;;;5.95;;
69594;SDS011;56800;52.142;5.364;2024-02-26T12:00:10;8.50;;;5.85;;
69594;SDS011;56800;52.142;5.364;2024-02-26T12:02:39;10.03;;;5.27;;
69594;SDS011;56800;52.142;5.364;2024-02-26T12:07:48;8.18;;;6.03;;
69594;SDS011;56800;52.142;5.364;2024-02-26T12:10:39;10.18;;;5.88;;
69594;SDS011;56800;52.142;5.364;2024-02-26T12:15:46;8.43;;;5.50;;
69594;SDS011;56800;52.142;5.364;2024-02-26T12:18:25;8.98;;;5.70;;
69594;SDS011;56800;52.142;5.364;2024-02-26T12:20:59;8.93;;;5.68;;
69594;SDS011;56800;52.142;5.364;2024-02-26T12:23:28;7.60;;;5.40;;
69594;SDS011;56800;52.142;5.364;2024-02-26T12:25:58;9.57;;;5.60;;
69594;SDS011;56800;52.142;5.364;2024-02-26T12:28:29;9.53;;;5.57;;
69594;SDS011;56800;52.142;5.364;2024-02-26T12:30:56;8.93;;;5.60;;
69594;SDS011;56800;52.142;5.364;2024-02-26T12:33:26;8.23;;;5.55;;
69594;SDS011;56800;52.142;5.364;2024-02-26T12:35:53;8.52;;;5.85;;
69594;SDS011;56800;52.142;5.364;2024-02-26T12:38:21;8.73;;;5.53;;
69594;SDS011;56800;52.142;5.364;2024-02-26T12:40:48;7.87;;;5.57;;
69594;SDS011;56800;52.142;5.364;2024-02-26T12:43:15;7.47;;;5.43;;
69594;SDS011;56800;52.142;5.364;2024-02-26T12:45:43;10.13;;;5.57;;
69594;SDS011;56800;52.142;5.364;2024-02-26T12:48:14;8.50;;;5.50;;
69594;SDS011;56800;52.142;5.364;2024-02-26T12:50:45;8.40;;;5.40;;
69594;SDS011;56800;52.142;5.364;2024-02-26T12:53:14;9.20;;;5.27;;
69594;SDS011;56800;52.142;5.364;2024-02-26T12:55:41;12.27;;;6.15;;
69594;SDS011;56800;52.142;5.364;2024-02-26T12:58:09;8.88;;;5.82;;
69594;SDS011;56800;52.142;5.364;2024-02-26T13:00:37;8.02;;;5.50;;
69594;SDS011;56800;52.142;5.364;2024-02-26T13:03:04;8.13;;;5.55;;
69594;SDS011;56800;52.142;5.364;2024-02-26T13:05:31;8.77;;;5.93;;
69594;SDS011;56800;52.142;5.364;2024-02-26T13:07:59;8.85;;;5.30;;
69594;SDS011;56800;52.142;5.364;2024-02-26T13:10:26;9.65;;;5.82;;
69594;SDS011;56800;52.142;5.364;2024-02-26T13:12:56;8.98;;;5.60;;
69594;SDS011;56800;52.142;5.364;2024-02-26T13:15:23;9.80;;;5.57;;
69594;SDS011;56800;52.142;5.364;2024-02-26T13:17:50;8.03;;;5.37;;
69594;SDS011;56800;52.142;5.364;2024-02-26T13:20:26;9.25;;;5.75;;
69594;SDS011;56800;52.142;5.364;2024-02-26T13:23:02;7.53;;;5.55;;
69594;SDS011;56800;52.142;5.364;2024-02-26T13:25:36;8.35;;;5.93;;
69594;SDS011;56800;52.142;5.364;2024-02-26T13:28:15;9.10;;;5.75;;
69594;SDS011;56800;52.142;5.364;2024-02-26T13:30:51;10.33;;;5.23;;
69594;SDS011;56800;52.142;5.364;2024-02-26T13:33:19;7.68;;;5.10;;
69594;SDS011;56800;52.142;5.364;2024-02-26T13:35:49;6.88;;;5.15;;
69594;SDS011;56800;52.142;5.364;2024-02-26T13:38:16;7.50;;;5.40;;
69594;SDS011;56800;52.142;5.364;2024-02-26T13:40:43;8.57;;;6.07;;
69594;SDS011;56800;52.142;5.364;2024-02-26T13:43:11;9.03;;;5.20;;
69594;SDS011;56800;52.142;5.364;2024-02-26T13:45:38;7.80;;;5.30;;
69594;SDS011;56800;52.142;5.364;2024-02-26T13:48:06;9.38;;;5.32;;
69594;SDS011;56800;52.142;5.364;2024-02-26T13:50:40;7.32;;;4.80;;
69594;SDS011;56800;52.142;5.364;2024-02-26T13:53:10;7.05;;;5.00;;
69594;SDS011;56800;52.142;5.364;2024-02-26T13:55:37;7.93;;;5.10;;
69594;SDS011;56800;52.142;5.364;2024-02-26T13:58:06;6.03;;;4.35;;
69594;SDS011;56800;52.142;5.364;2024-02-26T14:00:33;7.20;;;4.85;;
69594;SDS011;56800;52.142;5.364;2024-02-26T14:03:01;6.30;;;4.60;;
69594;SDS011;56800;52.142;5.364;2024-02-26T14:05:29;6.53;;;4.32;;
69594;SDS011;56800;52.142;5.364;2024-02-26T14:07:56;6.67;;;4.50;;
69594;SDS011;56800;52.142;5.364;2024-02-26T14:10:24;6.70;;;4.00;;
69594;SDS011;56800;52.142;5.364;2024-02-26T14:12:52;7.57;;;4.47;;
69594;SDS011;56800;52.142;5.364;2024-02-26T14:15:19;6.18;;;4.20;;
69594;SDS011;56800;52.142;5.364;2024-02-26T14:17:46;5.45;;;3.85;;
69594;SDS011;56800;52.142;5.364;2024-02-26T14:20:23;8.87;;;4.37;;
69594;SDS011;56800;52.142;5.364;2024-02-26T14:22:50;5.78;;;3.60;;
69594;SDS011;56800;52.142;5.364;2024-02-26T14:25:21;6.53;;;4.30;;
69594;SDS011;56800;52.142;5.364;2024-02-26T14:27:56;5.45;;;3.78;;
69594;SDS011;56800;52.142;5.364;2024-02-26T14:30:25;5.40;;;3.67;;
69594;SDS011;56800;52.142;5.364;2024-02-26T14:32:53;6.27;;;3.60;;
69594;SDS011;56800;52.142;5.364;2024-02-26T14:35:21;6.15;;;3.70;;
69594;SDS011;56800;52.142;5.364;2024-02-26T14:37:48;7.28;;;4.25;;
69594;SDS011;56800;52.142;5.364;2024-02-26T14:40:16;5.68;;;3.60;;
69594;SDS011;56800;52.142;5.364;2024-02-26T14:42:43;6.53;;;3.78;;
69594;SDS011;56800;52.142;5.364;2024-02-26T14:45:11;5.13;;;3.10;;
69594;SDS011;56800;52.142;5.364;2024-02-26T14:47:38;6.20;;;4.00;;
69594;SDS011;56800;52.142;5.364;2024-02-26T14:50:06;5.15;;;3.40;;
69594;SDS011;56800;52.142;5.364;2024-02-26T14:52:35;5.60;;;3.95;;
69594;SDS011;56800;52.142;5.364;2024-02-26T14:55:03;6.47;;;3.60;;
69594;SDS011;56800;52.142;5.364;2024-02-26T14:57:32;7.03;;;3.87;;